Time;durP1;ratioP1;P1;durP2;ratioP2;P2;SDS_P1;SDS_P2;PMS_P1;PMS_P2;Temp;Humidity;BMP_temperature;BMP_pressure;BME280_temperature;BME280_humidity;BME280_pressure;Samples;Min_cycle;Max_cycle;Signal;HPM_P1;HPM_P2
2021/10/02 00:36:01;;;;;;;8.60;4.82;;;;;;;;;;8256930;28;20467;-76
2021/10/02 00:44:40;;;;;;;11.80;4.53;;;;;;;;;;8257652;28;20049;-75
2021/10/02 00:48:45;;;;;;;8.38;5.10;;;;;;;;;;8254170;28;20502;-75
2021/10/02 00:52:51;;;;;;;8.30;4.82;;;;;;;;;;8255875;28;20480;-75
2021/10/02 00:56:57;;;;;;;9.52;5.57;;;;;;;;;;8258388;28;20475;-75
2021/10/02 01:01:04;;;;;;;8.52;4.35;;;;;;;;;;8272053;28;20480;-75
2021/10/02 01:05:18;;;;;;;10.43;5.17;;;;;;;;;;8257291;28;20045;-76
2021/10/02 01:10:15;;;;;;;9.35;4.68;;;;;;;;;;8271224;28;20387;-76
2021/10/02 01:14:47;;;;;;;9.38;4.95;;;;;;;;;;8273630;28;20490;-75
2021/10/02 01:19:07;;;;;;;7.68;3.88;;;;;;;;;;8275888;28;20388;-75
2021/10/02 01:23:52;;;;;;;6.38;4.35;;;;;;;;;;8277304;28;20450;-75
2021/10/02 01:28:08;;;;;;;8.38;4.05;;;;;;;;;;8280432;28;20048;-75
2021/10/02 01:32:23;;;;;;;7.57;4.32;;;;;;;;;;8264868;28;20380;-75
2021/10/02 01:37:16;;;;;;;8.70;4.53;;;;;;;;;;8276559;28;20053;-75
2021/10/02 01:50:11;;;;;;;6.40;3.53;;;;;;;;;;8274570;28;20064;-76
2021/10/02 01:54:17;;;;;;;5.88;3.45;;;;;;;;;;8262238;28;20049;-76
2021/10/02 01:58:24;;;;;;;6.07;3.88;;;;;;;;;;8278066;28;20476;-76
2021/10/02 02:02:31;;;;;;;7.63;4.30;;;;;;;;;;8276848;28;20496;-75
2021/10/02 02:06:36;;;;;;;5.82;3.63;;;;;;;;;;8277222;28;20480;-75
2021/10/02 02:10:45;;;;;;;6.45;3.70;;;;;;;;;;8264189;28;20476;-75
2021/10/02 02:14:51;;;;;;;6.57;4.15;;;;;;;;;;8260088;28;20072;-75
2021/10/02 02:18:58;;;;;;;5.63;3.58;;;;;;;;;;8245062;28;20483;-75
2021/10/02 02:23:05;;;;;;;4.85;3.38;;;;;;;;;;8276009;28;20478;-75
2021/10/02 02:27:10;;;;;;;5.97;3.60;;;;;;;;;;8260024;28;20048;-75
2021/10/02 02:31:16;;;;;;;6.32;3.90;;;;;;;;;;8280351;28;20368;-76
2021/10/02 02:35:23;;;;;;;5.72;3.22;;;;;;;;;;8283365;28;20375;-76
2021/10/02 02:39:29;;;;;;;6.20;2.92;;;;;;;;;;8268633;28;20356;-76
2021/10/02 02:43:36;;;;;;;6.32;3.40;;;;;;;;;;8269076;28;20045;-75
2021/10/02 02:47:49;;;;;;;6.63;2.88;;;;;;;;;;8262752;28;20067;-75
2021/10/02 02:52:04;;;;;;;8.52;3.33;;;;;;;;;;8260025;28;20372;-76
2021/10/02 02:56:22;;;;;;;4.63;3.15;;;;;;;;;;8275630;28;20321;-76
2021/10/02 03:00:28;;;;;;;8.27;3.22;;;;;;;;;;8276470;28;20433;-76
2021/10/02 03:04:36;;;;;;;6.15;3.33;;;;;;;;;;8260078;28;20045;-76
2021/10/02 03:08:44;;;;;;;5.38;2.92;;;;;;;;;;8282774;28;20448;-76
2021/10/02 03:12:52;;;;;;;4.30;3.08;;;;;;;;;;8277683;28;20371;-76
2021/10/02 03:16:59;;;;;;;5.35;3.15;;;;;;;;;;8259241;28;20344;-76
2021/10/02 03:21:04;;;;;;;5.47;3.13;;;;;;;;;;8278074;28;20356;-76
2021/10/02 03:25:11;;;;;;;4.93;3.45;;;;;;;;;;8259760;28;20368;-77
2021/10/02 03:29:16;;;;;;;5.18;3.05;;;;;;;;;;8261303;28;20368;-76
2021/10/02 03:33:24;;;;;;;4.88;3.00;;;;;;;;;;8277043;28;20471;-76
2021/10/02 03:37:30;;;;;;;6.63;3.50;;;;;;;;;;8260503;28;20468;-76
2021/10/02 03:41:35;;;;;;;9.98;3.38;;;;;;;;;;8264328;28;20368;-77
2021/10/02 03:45:41;;;;;;;12.88;3.20;;;;;;;;;;8266249;28;20041;-76
2021/10/02 03:49:47;;;;;;;8.43;3.83;;;;;;;;;;8266189;28;20456;-77
2021/10/02 03:53:52;;;;;;;5.88;3.75;;;;;;;;;;8260642;28;20460;-76
2021/10/02 03:57:57;;;;;;;8.98;4.03;;;;;;;;;;8261820;28;20490;-77
2021/10/02 04:02:04;;;;;;;9.57;5.00;;;;;;;;;;8260331;28;20080;-77
2021/10/02 04:06:08;;;;;;;7.38;3.28;;;;;;;;;;8259667;28;20083;-77
2021/10/02 04:10:13;;;;;;;5.35;3.22;;;;;;;;;;8265644;28;20482;-76
2021/10/02 04:14:19;;;;;;;5.45;3.20;;;;;;;;;;8261130;28;20049;-77
2021/10/02 04:18:25;;;;;;;5.30;3.33;;;;;;;;;;8261726;28;20063;-76
2021/10/02 04:22:30;;;;;;;10.38;5.00;;;;;;;;;;8275305;28;20463;-77
2021/10/02 04:26:35;;;;;;;11.35;5.65;;;;;;;;;;8277321;28;20071;-77
2021/10/02 04:30:40;;;;;;;7.97;4.05;;;;;;;;;;8260616;28;20452;-77
2021/10/02 04:34:45;;;;;;;7.55;3.47;;;;;;;;;;8258335;28;20055;-77
2021/10/02 04:38:50;;;;;;;5.78;3.90;;;;;;;;;;8258261;28;20045;-77
2021/10/02 04:42:56;;;;;;;5.93;3.38;;;;;;;;;;8260301;28;20380;-76
2021/10/02 04:47:01;;;;;;;5.85;3.33;;;;;;;;;;8260443;28;20067;-76
2021/10/02 04:51:07;;;;;;;5.70;3.30;;;;;;;;;;8279767;28;20380;-77
2021/10/02 04:55:13;;;;;;;6.22;3.55;;;;;;;;;;8265157;28;20414;-75
2021/10/02 04:59:17;;;;;;;7.35;3.72;;;;;;;;;;8263932;28;20061;-76
2021/10/02 05:03:22;;;;;;;4.88;3.17;;;;;;;;;;8264854;28;20041;-76
2021/10/02 05:07:27;;;;;;;7.15;2.85;;;;;;;;;;8264259;28;20350;-76
2021/10/02 05:11:32;;;;;;;7.55;3.50;;;;;;;;;;8263591;28;20446;-79
2021/10/02 05:15:40;;;;;;;9.98;3.35;;;;;;;;;;8262281;28;20436;-76
2021/10/02 05:19:46;;;;;;;7.22;3.47;;;;;;;;;;8278608;28;20053;-76
2021/10/02 05:23:52;;;;;;;3.88;2.65;;;;;;;;;;8263076;28;20045;-76
2021/10/02 05:27:57;;;;;;;7.43;3.17;;;;;;;;;;8265585;28;20071;-76
2021/10/02 05:32:04;;;;;;;5.53;3.50;;;;;;;;;;8262913;28;20424;-76
2021/10/02 05:36:10;;;;;;;5.72;3.17;;;;;;;;;;8261709;28;20506;-76
2021/10/02 05:40:16;;;;;;;5.72;3.35;;;;;;;;;;8277266;28;20439;-76
2021/10/02 05:44:21;;;;;;;5.25;3.33;;;;;;;;;;8278349;28;20384;-77
2021/10/02 05:48:26;;;;;;;8.98;3.58;;;;;;;;;;8278239;28;20410;-76
2021/10/02 05:52:31;;;;;;;4.72;3.00;;;;;;;;;;8263944;28;20474;-76
2021/10/02 05:56:39;;;;;;;5.80;3.30;;;;;;;;;;8262789;28;20317;-77
2021/10/02 06:00:44;;;;;;;4.82;3.33;;;;;;;;;;8261432;28;20053;-77
2021/10/02 06:04:50;;;;;;;5.22;2.80;;;;;;;;;;8278795;28;20064;-77
2021/10/02 06:08:55;;;;;;;7.95;3.28;;;;;;;;;;8261533;28;20471;-77
2021/10/02 06:13:01;;;;;;;6.15;3.13;;;;;;;;;;8263261;28;20363;-77
2021/10/02 06:17:06;;;;;;;3.83;2.90;;;;;;;;;;8278567;28;20067;-76
2021/10/02 06:21:14;;;;;;;5.95;2.88;;;;;;;;;;8264583;28;20037;-76
2021/10/02 06:25:19;;;;;;;4.87;3.17;;;;;;;;;;8266558;28;20071;-76
2021/10/02 06:29:24;;;;;;;8.60;3.38;;;;;;;;;;8279374;28;20480;-76
2021/10/02 06:33:30;;;;;;;5.00;2.85;;;;;;;;;;8265370;28;20467;-76
2021/10/02 06:37:37;;;;;;;7.50;3.45;;;;;;;;;;8264546;28;20067;-77
2021/10/02 06:41:42;;;;;;;5.07;3.03;;;;;;;;;;8263247;28;20052;-77
2021/10/02 06:45:47;;;;;;;4.50;2.75;;;;;;;;;;8262505;28;20476;-76
2021/10/02 06:49:57;;;;;;;5.72;2.88;;;;;;;;;;8262394;28;20472;-76
2021/10/02 06:54:02;;;;;;;5.22;2.80;;;;;;;;;;8276353;28;20049;-75
2021/10/02 06:58:07;;;;;;;3.78;2.67;;;;;;;;;;8261675;28;20448;-75
2021/10/02 07:02:12;;;;;;;4.53;2.70;;;;;;;;;;8262639;28;20467;-76
2021/10/02 07:06:18;;;;;;;5.03;3.47;;;;;;;;;;8261042;28;20476;-76
2021/10/02 07:10:23;;;;;;;4.95;2.97;;;;;;;;;;8261974;28;20321;-75
2021/10/02 07:14:28;;;;;;;4.68;2.83;;;;;;;;;;8261868;28;20448;-75
2021/10/02 07:18:33;;;;;;;5.38;2.78;;;;;;;;;;8260871;28;20352;-76
2021/10/02 07:22:39;;;;;;;5.22;3.08;;;;;;;;;;8257010;28;20072;-75
2021/10/02 07:26:45;;;;;;;4.25;3.03;;;;;;;;;;8259243;28;20056;-76
2021/10/02 07:30:50;;;;;;;7.13;3.00;;;;;;;;;;8274077;28;20436;-76
2021/10/02 07:34:55;;;;;;;8.57;3.10;;;;;;;;;;8259581;28;20501;-75
2021/10/02 07:39:00;;;;;;;5.13;3.42;;;;;;;;;;8260254;28;20379;-75
2021/10/02 07:43:06;;;;;;;5.38;3.13;;;;;;;;;;8256869;28;20403;-75
2021/10/02 07:47:13;;;;;;;6.05;3.47;;;;;;;;;;8273677;28;20052;-75
2021/10/02 07:51:18;;;;;;;6.57;3.23;;;;;;;;;;8257721;28;20636;-75
2021/10/02 07:55:26;;;;;;;6.28;3.80;;;;;;;;;;8258695;28;20983;-75
2021/10/02 07:59:31;;;;;;;8.02;4.75;;;;;;;;;;8256651;28;20506;-75
2021/10/02 08:03:37;;;;;;;6.45;4.20;;;;;;;;;;8257698;28;20359;-75
2021/10/02 08:07:45;;;;;;;8.98;4.05;;;;;;;;;;8272867;28;20498;-74
2021/10/02 08:11:50;;;;;;;8.50;4.47;;;;;;;;;;8257003;28;20403;-75
2021/10/02 08:16:02;;;;;;;7.78;4.75;;;;;;;;;;8257666;28;20060;-75
2021/10/02 08:20:12;;;;;;;7.20;4.53;;;;;;;;;;8256988;28;20494;-75
2021/10/02 08:24:18;;;;;;;10.20;5.20;;;;;;;;;;8257654;28;20075;-75
2021/10/02 08:28:23;;;;;;;9.40;5.07;;;;;;;;;;8258023;28;20507;-76
2021/10/02 08:32:28;;;;;;;6.45;4.18;;;;;;;;;;8257821;28;20067;-75
2021/10/02 08:36:33;;;;;;;14.77;5.47;;;;;;;;;;8259139;28;20041;-75
2021/10/02 08:40:39;;;;;;;7.22;5.15;;;;;;;;;;8259453;28;20041;-74
2021/10/02 08:44:45;;;;;;;9.32;4.93;;;;;;;;;;8257687;28;20330;-76
2021/10/02 08:49:31;;;;;;;10.77;4.82;;;;;;;;;;8271972;28;20487;-76
2021/10/02 08:53:37;;;;;;;13.40;5.38;;;;;;;;;;8258049;28;20053;-76
2021/10/02 08:57:45;;;;;;;8.20;4.90;;;;;;;;;;8257074;28;20460;-77
2021/10/02 09:01:51;;;;;;;5.35;4.28;;;;;;;;;;8255537;28;20106;-76
2021/10/02 09:05:56;;;;;;;9.05;4.88;;;;;;;;;;8256581;28;20475;-76
2021/10/02 09:10:03;;;;;;;6.80;4.88;;;;;;;;;;8272728;28;20087;-77
2021/10/02 09:14:11;;;;;;;11.50;4.85;;;;;;;;;;8271478;28;20049;-76
2021/10/02 09:18:16;;;;;;;8.00;4.70;;;;;;;;;;8255283;28;20455;-76
2021/10/02 09:22:22;;;;;;;10.43;5.10;;;;;;;;;;8272282;28;20041;-75
2021/10/02 09:26:44;;;;;;;8.23;4.93;;;;;;;;;;8255292;28;20124;-76
2021/10/02 09:30:50;;;;;;;7.03;5.20;;;;;;;;;;8257153;28;20067;-75
2021/10/02 09:34:59;;;;;;;7.15;4.30;;;;;;;;;;8256186;28;20456;-76
2021/10/02 09:39:05;;;;;;;6.45;4.63;;;;;;;;;;8262522;28;20479;-75
2021/10/02 09:43:10;;;;;;;9.25;4.90;;;;;;;;;;8264173;28;20068;-75
2021/10/02 09:47:18;;;;;;;13.55;5.88;;;;;;;;;;8261459;28;20376;-75
2021/10/02 09:51:39;;;;;;;8.05;5.20;;;;;;;;;;8278280;28;20075;-75
2021/10/02 09:56:12;;;;;;;10.13;4.82;;;;;;;;;;8273457;28;20368;-77
2021/10/02 10:00:24;;;;;;;6.47;4.43;;;;;;;;;;8276271;28;20613;-77
2021/10/02 10:04:30;;;;;;;7.60;4.57;;;;;;;;;;8261777;28;20045;-76
2021/10/02 10:08:35;;;;;;;7.97;4.75;;;;;;;;;;8262459;28;20452;-75
2021/10/02 10:12:43;;;;;;;14.20;5.10;;;;;;;;;;8261209;28;20375;-75
2021/10/02 10:16:48;;;;;;;7.75;4.57;;;;;;;;;;8262296;28;20432;-76
2021/10/02 10:20:55;;;;;;;9.95;4.70;;;;;;;;;;8261036;28;20471;-75
2021/10/02 10:25:08;;;;;;;10.52;4.53;;;;;;;;;;8260563;28;20056;-74
2021/10/02 10:29:14;;;;;;;13.65;4.50;;;;;;;;;;8259607;28;20490;-74
2021/10/02 10:33:21;;;;;;;8.25;4.75;;;;;;;;;;8259537;28;20487;-75
2021/10/02 10:37:27;;;;;;;10.20;5.25;;;;;;;;;;8260922;28;20452;-73
2021/10/02 10:41:33;;;;;;;9.65;4.63;;;;;;;;;;8274363;28;20372;-76
2021/10/02 10:45:39;;;;;;;7.97;5.13;;;;;;;;;;8260273;28;20068;-74
2021/10/02 10:49:45;;;;;;;7.75;4.75;;;;;;;;;;8260388;28;20067;-75
2021/10/02 10:53:52;;;;;;;6.80;4.32;;;;;;;;;;8258953;28;20495;-76
2021/10/02 10:58:02;;;;;;;16.27;5.90;;;;;;;;;;8274767;28;20383;-76
2021/10/02 11:02:08;;;;;;;8.32;4.70;;;;;;;;;;8258752;28;20368;-75
2021/10/02 11:06:19;;;;;;;8.38;5.28;;;;;;;;;;8273669;28;20108;-74
2021/10/02 11:10:42;;;;;;;7.85;4.80;;;;;;;;;;8259468;28;20367;-74
2021/10/02 11:14:47;;;;;;;6.28;4.43;;;;;;;;;;8259334;28;20497;-75
2021/10/02 11:18:52;;;;;;;9.70;4.63;;;;;;;;;;8260795;28;20470;-76
2021/10/02 11:23:38;;;;;;;10.20;4.20;;;;;;;;;;8260906;28;20371;-75
2021/10/02 11:27:43;;;;;;;9.65;4.28;;;;;;;;;;8260347;28;20130;-76
2021/10/02 11:31:51;;;;;;;9.57;4.72;;;;;;;;;;8258821;28;20076;-75
2021/10/02 11:35:56;;;;;;;7.50;4.50;;;;;;;;;;8259080;28;20380;-75
2021/10/02 11:40:01;;;;;;;10.27;4.65;;;;;;;;;;8260515;28;20464;-75
2021/10/02 11:44:06;;;;;;;8.85;4.22;;;;;;;;;;8258413;28;20045;-74
2021/10/02 11:48:15;;;;;;;9.50;4.80;;;;;;;;;;8224159;28;20056;-74
2021/10/02 11:52:20;;;;;;;10.10;4.63;;;;;;;;;;8260270;28;20469;-75
2021/10/02 11:56:30;;;;;;;5.93;4.00;;;;;;;;;;8258579;28;20391;-75
2021/10/02 12:00:45;;;;;;;9.40;4.57;;;;;;;;;;8255939;28;20499;-75
2021/10/02 12:04:53;;;;;;;6.15;4.15;;;;;;;;;;8273857;28;20053;-75
2021/10/02 12:08:59;;;;;;;6.80;4.35;;;;;;;;;;8272626;28;20360;-75
2021/10/02 12:13:23;;;;;;;13.48;5.20;;;;;;;;;;8256551;28;20612;-74
2021/10/02 12:17:28;;;;;;;10.00;4.20;;;;;;;;;;8257450;28;20350;-74
2021/10/02 12:21:37;;;;;;;8.02;3.85;;;;;;;;;;8258205;28;20575;-76
2021/10/02 12:25:43;;;;;;;9.23;4.30;;;;;;;;;;8258929;28;20045;-74
2021/10/02 12:29:51;;;;;;;7.22;4.45;;;;;;;;;;8256617;28;20064;-75
2021/10/02 12:34:14;;;;;;;14.15;4.22;;;;;;;;;;8271811;28;20384;-75
2021/10/02 12:38:22;;;;;;;14.50;5.35;;;;;;;;;;8255556;28;20071;-75
2021/10/02 12:42:55;;;;;;;11.88;5.70;;;;;;;;;;8257229;28;20478;-75
2021/10/02 12:47:03;;;;;;;6.57;3.88;;;;;;;;;;8252538;28;20472;-75
2021/10/02 12:51:09;;;;;;;6.88;4.15;;;;;;;;;;8255832;28;20053;-75
2021/10/02 12:55:18;;;;;;;7.38;4.47;;;;;;;;;;8270680;28;20506;-73
2021/10/02 12:59:23;;;;;;;5.72;3.63;;;;;;;;;;8257164;28;20444;-76
2021/10/02 13:03:28;;;;;;;6.38;4.25;;;;;;;;;;8272446;28;20364;-76
2021/10/02 13:07:36;;;;;;;6.47;4.32;;;;;;;;;;8253556;28;20056;-75
2021/10/02 13:11:42;;;;;;;7.97;4.35;;;;;;;;;;8275963;28;20353;-74
2021/10/02 13:15:59;;;;;;;6.75;4.10;;;;;;;;;;8263855;28;20468;-74
2021/10/02 13:20:14;;;;;;;7.75;4.60;;;;;;;;;;8277462;28;20502;-74
2021/10/02 13:24:21;;;;;;;6.63;4.45;;;;;;;;;;8262090;28;20396;-73
2021/10/02 13:28:42;;;;;;;15.20;7.22;;;;;;;;;;8261898;28;20053;-75
2021/10/02 13:33:14;;;;;;;7.25;4.30;;;;;;;;;;8274101;28;20505;-74
2021/10/02 13:37:26;;;;;;;10.73;4.15;;;;;;;;;;8262264;28;20403;-74
2021/10/02 13:41:31;;;;;;;7.28;4.00;;;;;;;;;;8264085;28;20495;-75
2021/10/02 13:45:44;;;;;;;7.80;4.40;;;;;;;;;;8262229;28;20478;-75
2021/10/02 13:49:48;;;;;;;7.03;4.50;;;;;;;;;;8276590;28;20071;-74
2021/10/02 13:53:58;;;;;;;9.45;4.28;;;;;;;;;;8259901;28;20380;-74
2021/10/02 13:58:04;;;;;;;7.85;3.80;;;;;;;;;;8275952;28;20498;-73
2021/10/02 14:02:09;;;;;;;5.88;3.92;;;;;;;;;;8259799;28;20460;-75
2021/10/02 14:06:14;;;;;;;13.20;7.22;;;;;;;;;;8262974;28;20075;-76
2021/10/02 14:10:21;;;;;;;48.42;23.10;;;;;;;;;;8260952;28;20037;-76
2021/10/02 14:14:27;;;;;;;39.70;20.25;;;;;;;;;;8260403;28;20436;-75
2021/10/02 14:18:32;;;;;;;14.00;8.35;;;;;;;;;;8260818;28;20352;-74
2021/10/02 14:22:37;;;;;;;6.03;4.30;;;;;;;;;;8260695;28;20414;-74
2021/10/02 14:26:44;;;;;;;8.07;4.93;;;;;;;;;;8261374;28;20045;-76
2021/10/02 14:30:49;;;;;;;8.63;5.18;;;;;;;;;;8260604;28;20049;-75
2021/10/02 14:34:54;;;;;;;7.97;4.95;;;;;;;;;;8275630;28;20480;-74
2021/10/02 14:38:59;;;;;;;11.65;5.30;;;;;;;;;;8275103;28;20492;-74
2021/10/02 14:43:05;;;;;;;20.38;8.23;;;;;;;;;;8260262;28;20067;-75
2021/10/02 14:47:09;;;;;;;15.75;7.82;;;;;;;;;;8260335;28;20502;-75
2021/10/02 14:51:15;;;;;;;19.98;9.35;;;;;;;;;;8258167;28;20350;-74
2021/10/02 14:55:21;;;;;;;20.83;9.45;;;;;;;;;;8258146;28;20471;-74
2021/10/02 14:59:29;;;;;;;14.60;6.13;;;;;;;;;;8259457;28;20355;-73
2021/10/02 15:03:33;;;;;;;20.30;7.50;;;;;;;;;;8273950;28;20471;-73
2021/10/02 15:07:39;;;;;;;22.73;9.57;;;;;;;;;;8260574;28;20371;-74
2021/10/02 15:11:46;;;;;;;34.03;11.20;;;;;;;;;;8258867;28;20067;-74
2021/10/02 15:15:55;;;;;;;26.15;10.98;;;;;;;;;;8260909;28;20075;-73
2021/10/02 15:20:01;;;;;;;15.38;7.38;;;;;;;;;;8257214;28;20467;-73
2021/10/02 15:24:07;;;;;;;12.85;7.85;;;;;;;;;;8258951;28;20475;-73
2021/10/02 15:28:18;;;;;;;15.02;8.00;;;;;;;;;;8273751;28;20483;-73
2021/10/02 15:32:26;;;;;;;14.52;8.57;;;;;;;;;;8258799;28;20456;-73
2021/10/02 15:36:33;;;;;;;13.50;8.10;;;;;;;;;;8258927;28;20052;-73
2021/10/02 15:40:38;;;;;;;16.83;8.35;;;;;;;;;;8258330;28;20049;-73
2021/10/02 15:44:44;;;;;;;15.98;8.40;;;;;;;;;;8258234;28;20460;-74
2021/10/02 15:48:49;;;;;;;12.77;7.28;;;;;;;;;;8272733;28;20068;-73
2021/10/02 15:52:54;;;;;;;18.45;7.82;;;;;;;;;;8257958;28;20498;-73
2021/10/02 15:57:05;;;;;;;17.55;8.27;;;;;;;;;;8257623;28;20045;-73
2021/10/02 16:01:14;;;;;;;26.90;15.32;;;;;;;;;;8229402;28;20061;-74
2021/10/02 16:05:45;;;;;;;64.78;33.40;;;;;;;;;;8235097;28;20464;-73
2021/10/02 16:09:53;;;;;;;68.75;31.95;;;;;;;;;;8257248;28;20418;-73
2021/10/02 16:14:01;;;;;;;55.13;22.93;;;;;;;;;;8259480;28;20372;-73
2021/10/02 16:18:12;;;;;;;89.70;43.60;;;;;;;;;;8258045;28;20361;-72
2021/10/02 16:22:17;;;;;;;48.80;22.70;;;;;;;;;;8257593;28;20372;-73
2021/10/02 16:26:28;;;;;;;23.13;11.88;;;;;;;;;;8256915;28;20368;-73
2021/10/02 16:30:36;;;;;;;45.63;21.02;;;;;;;;;;8271543;28;20365;-73
2021/10/02 16:34:41;;;;;;;433.57;185.50;;;;;;;;;;8255939;28;20353;-72
2021/10/02 16:38:46;;;;;;;166.10;65.32;;;;;;;;;;8271724;28;20499;-72
2021/10/02 16:42:52;;;;;;;74.05;32.80;;;;;;;;;;8255540;28;20460;-73
2021/10/02 16:46:57;;;;;;;48.75;24.02;;;;;;;;;;8263700;28;20369;-72
2021/10/02 16:51:02;;;;;;;73.75;36.75;;;;;;;;;;8266029;28;20371;-72
2021/10/02 16:55:08;;;;;;;34.85;19.02;;;;;;;;;;8278380;28;20064;-72
2021/10/02 16:59:13;;;;;;;42.03;19.38;;;;;;;;;;8277682;28;20345;-73
2021/10/02 17:03:19;;;;;;;25.92;15.45;;;;;;;;;;8279139;28;20491;-72
2021/10/02 17:07:25;;;;;;;21.90;12.77;;;;;;;;;;8261557;28;20505;-72
2021/10/02 17:11:30;;;;;;;17.10;10.48;;;;;;;;;;8261687;28;20482;-72
2021/10/02 17:15:35;;;;;;;31.50;15.95;;;;;;;;;;8262723;28;20491;-71
2021/10/02 17:19:40;;;;;;;31.85;15.60;;;;;;;;;;8262804;28;20475;-72
2021/10/02 17:23:45;;;;;;;34.88;19.30;;;;;;;;;;8262653;28;20372;-73
2021/10/02 17:27:53;;;;;;;36.53;19.60;;;;;;;;;;8261459;28;20457;-72
2021/10/02 17:31:59;;;;;;;22.77;11.35;;;;;;;;;;8262943;28;20472;-74
2021/10/02 17:36:05;;;;;;;17.30;8.73;;;;;;;;;;8261153;28;20460;-72
2021/10/02 17:40:17;;;;;;;24.00;10.88;;;;;;;;;;8262278;28;20479;-72
2021/10/02 17:44:22;;;;;;;29.73;15.52;;;;;;;;;;8197686;28;20049;-75
2021/10/02 17:48:34;;;;;;;17.92;11.18;;;;;;;;;;8261628;28;20487;-74
2021/10/02 17:52:40;;;;;;;22.73;13.13;;;;;;;;;;8260351;28;20379;-74
2021/10/02 17:56:45;;;;;;;72.32;26.80;;;;;;;;;;8262683;28;20486;-72
2021/10/02 18:00:52;;;;;;;33.17;16.65;;;;;;;;;;8261789;28;20487;-72
2021/10/02 18:04:57;;;;;;;77.30;30.08;;;;;;;;;;8276652;28;20056;-75
2021/10/02 18:09:03;;;;;;;121.03;46.45;;;;;;;;;;8261118;28;20400;-72
2021/10/02 18:13:08;;;;;;;104.20;36.03;;;;;;;;;;8260002;28;20471;-72
2021/10/02 18:17:13;;;;;;;99.30;39.85;;;;;;;;;;8261813;28;20487;-73
2021/10/02 18:21:19;;;;;;;107.45;46.33;;;;;;;;;;8259559;28;20475;-72
2021/10/02 18:25:28;;;;;;;65.38;31.52;;;;;;;;;;8260216;28;20367;-75
2021/10/02 18:29:34;;;;;;;73.25;40.67;;;;;;;;;;8260290;28;20071;-75
2021/10/02 18:33:39;;;;;;;52.58;26.98;;;;;;;;;;8260050;28;20371;-73
2021/10/02 18:37:48;;;;;;;52.55;28.80;;;;;;;;;;8260662;28;20492;-73
2021/10/02 18:41:53;;;;;;;55.67;24.83;;;;;;;;;;8259172;28;20459;-73
2021/10/02 18:45:58;;;;;;;53.22;25.55;;;;;;;;;;8275461;28;20463;-73
2021/10/02 18:50:05;;;;;;;53.35;26.30;;;;;;;;;;8259714;28;20256;-73
2021/10/02 18:54:11;;;;;;;57.38;27.30;;;;;;;;;;8259999;28;20464;-73
2021/10/02 18:58:16;;;;;;;68.57;33.65;;;;;;;;;;8262083;28;20463;-74
2021/10/02 19:02:21;;;;;;;49.88;25.45;;;;;;;;;;8262551;28;20364;-73
2021/10/02 19:06:27;;;;;;;47.40;26.67;;;;;;;;;;8259976;28;20391;-73
2021/10/02 19:10:32;;;;;;;51.17;28.83;;;;;;;;;;8259169;28;20075;-73
2021/10/02 19:14:37;;;;;;;29.75;17.27;;;;;;;;;;8260973;28;20356;-73
2021/10/02 19:18:43;;;;;;;35.40;19.85;;;;;;;;;;8259919;28;20678;-73
2021/10/02 19:22:48;;;;;;;36.47;16.88;;;;;;;;;;8273707;28;20057;-73
2021/10/02 19:26:55;;;;;;;39.10;18.80;;;;;;;;;;8274398;28;20079;-73
2021/10/02 19:31:00;;;;;;;117.95;31.90;;;;;;;;;;8273583;28;20075;-74
2021/10/02 19:35:07;;;;;;;48.33;21.67;;;;;;;;;;8272739;28;20361;-73
2021/10/02 19:39:13;;;;;;;32.95;15.57;;;;;;;;;;8261419;28;20344;-74
2021/10/02 19:43:20;;;;;;;35.45;16.55;;;;;;;;;;8258775;28;20059;-73
2021/10/02 19:47:25;;;;;;;89.22;24.98;;;;;;;;;;8258711;28;20052;-73
2021/10/02 19:51:30;;;;;;;94.57;25.73;;;;;;;;;;8258593;28;20471;-73
2021/10/02 19:55:35;;;;;;;49.15;25.38;;;;;;;;;;8258299;28;20406;-73
2021/10/02 19:59:43;;;;;;;54.70;23.42;;;;;;;;;;8257832;28;20492;-73
2021/10/02 20:03:48;;;;;;;47.25;20.02;;;;;;;;;;8273262;28;20443;-73
2021/10/02 20:07:53;;;;;;;44.90;19.75;;;;;;;;;;8273371;28;20053;-73
2021/10/02 20:11:59;;;;;;;31.00;14.38;;;;;;;;;;8258492;28;20456;-73
2021/10/02 20:16:05;;;;;;;33.65;15.38;;;;;;;;;;8273463;28;20490;-73
2021/10/02 20:20:11;;;;;;;28.95;14.25;;;;;;;;;;8272318;28;20045;-73
2021/10/02 20:24:16;;;;;;;29.15;13.95;;;;;;;;;;8256260;28;20325;-73
2021/10/02 20:28:22;;;;;;;29.83;14.38;;;;;;;;;;8258899;28;20361;-73
2021/10/02 20:32:27;;;;;;;30.70;15.80;;;;;;;;;;8258165;28;20445;-73
2021/10/02 20:36:33;;;;;;;220.50;76.97;;;;;;;;;;8258212;28;20546;-73
2021/10/02 20:40:39;;;;;;;56.17;23.70;;;;;;;;;;8271476;28;20460;-73
2021/10/02 20:44:45;;;;;;;36.97;17.27;;;;;;;;;;8257787;28;20494;-73
2021/10/02 20:48:51;;;;;;;31.52;15.32;;;;;;;;;;8256361;28;20503;-73
2021/10/02 20:52:58;;;;;;;36.85;17.42;;;;;;;;;;8257290;28;20476;-73
2021/10/02 20:57:07;;;;;;;46.15;19.90;;;;;;;;;;8255173;28;20049;-73
2021/10/02 21:01:13;;;;;;;34.28;16.95;;;;;;;;;;8271138;28;20380;-73
2021/10/02 21:05:22;;;;;;;30.45;15.85;;;;;;;;;;8271704;28;20467;-72
2021/10/02 21:09:29;;;;;;;28.17;14.45;;;;;;;;;;8256445;28;20057;-73
2021/10/02 21:13:35;;;;;;;48.05;18.38;;;;;;;;;;8272606;28;20439;-73
2021/10/02 21:17:40;;;;;;;34.83;16.27;;;;;;;;;;8257314;28;20472;-73
2021/10/02 21:21:46;;;;;;;32.88;16.08;;;;;;;;;;8272884;28;20451;-73
2021/10/02 21:25:57;;;;;;;32.70;14.30;;;;;;;;;;8270573;28;20456;-73
2021/10/02 21:30:11;;;;;;;26.80;14.75;;;;;;;;;;8255815;28;20456;-73
2021/10/02 21:34:16;;;;;;;29.42;15.95;;;;;;;;;;8261813;28;20049;-73
2021/10/02 21:38:22;;;;;;;44.95;13.88;;;;;;;;;;8261679;28;20483;-74
2021/10/02 21:42:27;;;;;;;34.85;14.80;;;;;;;;;;8262522;28;20479;-73
2021/10/02 21:46:32;;;;;;;28.50;14.98;;;;;;;;;;8276991;28;20368;-73
2021/10/02 21:50:41;;;;;;;27.83;15.23;;;;;;;;;;8277479;28;20045;-73
2021/10/02 21:54:48;;;;;;;37.15;17.48;;;;;;;;;;8276733;28;20045;-73
2021/10/02 21:58:57;;;;;;;68.82;29.23;;;;;;;;;;8277187;28;20365;-73
2021/10/02 22:03:03;;;;;;;43.28;21.92;;;;;;;;;;8276814;28;20071;-73
2021/10/02 22:07:09;;;;;;;35.42;17.02;;;;;;;;;;8261185;28;20490;-73
2021/10/02 22:11:15;;;;;;;36.42;17.10;;;;;;;;;;8260854;28;20460;-72
2021/10/02 22:15:20;;;;;;;45.05;21.63;;;;;;;;;;8260735;28;20376;-72
2021/10/02 22:19:31;;;;;;;28.10;14.00;;;;;;;;;;8261493;28;20484;-72
2021/10/02 22:23:44;;;;;;;52.88;22.30;;;;;;;;;;8275007;28;20355;-72
2021/10/02 22:27:54;;;;;;;36.33;15.77;;;;;;;;;;8261522;28;20487;-72
2021/10/02 22:31:59;;;;;;;35.53;16.75;;;;;;;;;;8274783;28;20444;-72
2021/10/02 22:36:05;;;;;;;22.90;12.80;;;;;;;;;;8259650;28;20060;-72
2021/10/02 22:40:10;;;;;;;24.77;12.13;;;;;;;;;;8260013;28;20394;-72
2021/10/02 22:44:16;;;;;;;24.30;11.65;;;;;;;;;;8274812;28;20103;-72
2021/10/02 22:48:24;;;;;;;21.88;10.85;;;;;;;;;;8260549;28;20387;-72
2021/10/02 22:52:29;;;;;;;26.42;11.90;;;;;;;;;;8258669;28;20041;-72
2021/10/02 22:56:34;;;;;;;99.30;26.60;;;;;;;;;;8274094;28;20360;-72
2021/10/02 23:00:39;;;;;;;30.33;12.55;;;;;;;;;;8260331;28;20483;-72
2021/10/02 23:04:45;;;;;;;26.35;11.52;;;;;;;;;;8259186;28;20372;-72
2021/10/02 23:08:50;;;;;;;36.40;15.13;;;;;;;;;;8273973;28;20475;-73
2021/10/02 23:12:55;;;;;;;25.17;9.85;;;;;;;;;;8274094;28;20376;-72
2021/10/02 23:17:04;;;;;;;20.73;10.13;;;;;;;;;;8257765;28;20464;-72
2021/10/02 23:21:11;;;;;;;25.70;11.20;;;;;;;;;;8257588;28;20475;-72
2021/10/02 23:25:18;;;;;;;26.23;11.63;;;;;;;;;;8258244;28;20071;-73
2021/10/02 23:29:25;;;;;;;117.45;45.95;;;;;;;;;;8273050;28;20380;-73
2021/10/02 23:33:30;;;;;;;47.58;19.42;;;;;;;;;;8274018;28;20464;-72
2021/10/02 23:37:37;;;;;;;122.65;40.42;;;;;;;;;;8260970;28;20487;-72
2021/10/02 23:41:45;;;;;;;40.50;16.48;;;;;;;;;;8272890;28;20476;-73
2021/10/02 23:45:50;;;;;;;23.10;11.27;;;;;;;;;;8257646;28;20045;-72
2021/10/02 23:49:56;;;;;;;59.05;22.40;;;;;;;;;;8258005;28;20402;-72
2021/10/02 23:54:09;;;;;;;57.40;19.08;;;;;;;;;;8258401;28;20067;-73
2021/10/02 23:58:19;;;;;;;32.72;13.98;;;;;;;;;;8258059;28;20445;-72
